sensor_id;sensor_type;location;lat;lon;timestamp;P1;durP1;ratioP1;P2;durP2;ratioP2
29358;SDS011;16347;53.232;6.556;2022-08-20T00:01:39;11.75;;;4.47;;
29358;SDS011;16347;53.232;6.556;2022-08-20T00:04:07;10.52;;;5.03;;
29358;SDS011;16347;53.232;6.556;2022-08-20T00:06:37;9.45;;;4.75;;
29358;SDS011;16347;53.232;6.556;2022-08-20T00:09:06;12.75;;;4.72;;
29358;SDS011;16347;53.232;6.556;2022-08-20T00:11:36;11.93;;;4.78;;
29358;SDS011;16347;53.232;6.556;2022-08-20T00:14:06;14.55;;;4.97;;
29358;SDS011;16347;53.232;6.556;2022-08-20T00:16:35;13.00;;;5.03;;
29358;SDS011;16347;53.232;6.556;2022-08-20T00:19:05;8.57;;;4.28;;
29358;SDS011;16347;53.232;6.556;2022-08-20T00:21:35;12.40;;;4.53;;
29358;SDS011;16347;53.232;6.556;2022-08-20T00:24:03;16.02;;;4.78;;
29358;SDS011;16347;53.232;6.556;2022-08-20T00:26:32;12.32;;;4.60;;
29358;SDS011;16347;53.232;6.556;2022-08-20T00:29:06;9.27;;;4.22;;
29358;SDS011;16347;53.232;6.556;2022-08-20T00:31:36;10.27;;;4.25;;
29358;SDS011;16347;53.232;6.556;2022-08-20T00:34:04;17.80;;;4.82;;
29358;SDS011;16347;53.232;6.556;2022-08-20T00:36:32;15.82;;;3.90;;
29358;SDS011;16347;53.232;6.556;2022-08-20T00:39:00;11.95;;;4.15;;
29358;SDS011;16347;53.232;6.556;2022-08-20T00:41:28;15.95;;;4.47;;
29358;SDS011;16347;53.232;6.556;2022-08-20T00:44:03;8.02;;;3.83;;
29358;SDS011;16347;53.232;6.556;2022-08-20T00:46:35;11.73;;;3.97;;
29358;SDS011;16347;53.232;6.556;2022-08-20T00:49:05;14.23;;;4.88;;
29358;SDS011;16347;53.232;6.556;2022-08-20T00:51:36;16.60;;;4.35;;
29358;SDS011;16347;53.232;6.556;2022-08-20T00:54:08;12.60;;;4.40;;
29358;SDS011;16347;53.232;6.556;2022-08-20T00:56:40;7.78;;;4.07;;
29358;SDS011;16347;53.232;6.556;2022-08-20T00:59:11;12.55;;;4.63;;
29358;SDS011;16347;53.232;6.556;2022-08-20T01:01:46;10.02;;;4.15;;
29358;SDS011;16347;53.232;6.556;2022-08-20T01:04:22;14.77;;;4.20;;
29358;SDS011;16347;53.232;6.556;2022-08-20T01:06:51;8.40;;;3.80;;
29358;SDS011;16347;53.232;6.556;2022-08-20T01:09:20;17.95;;;4.32;;
29358;SDS011;16347;53.232;6.556;2022-08-20T01:12:09;11.60;;;4.68;;
29358;SDS011;16347;53.232;6.556;2022-08-20T01:14:37;10.65;;;4.18;;
29358;SDS011;16347;53.232;6.556;2022-08-20T01:17:13;7.28;;;3.72;;
29358;SDS011;16347;53.232;6.556;2022-08-20T01:19:44;19.35;;;4.47;;
29358;SDS011;16347;53.232;6.556;2022-08-20T01:22:18;16.92;;;4.38;;
29358;SDS011;16347;53.232;6.556;2022-08-20T01:25:11;17.00;;;5.68;;
29358;SDS011;16347;53.232;6.556;2022-08-20T01:27:45;9.55;;;4.30;;
29358;SDS011;16347;53.232;6.556;2022-08-20T01:30:21;13.00;;;4.88;;
29358;SDS011;16347;53.232;6.556;2022-08-20T01:32:51;16.83;;;4.70;;
29358;SDS011;16347;53.232;6.556;2022-08-20T01:35:19;15.05;;;4.75;;
29358;SDS011;16347;53.232;6.556;2022-08-20T01:37:49;10.93;;;4.30;;
29358;SDS011;16347;53.232;6.556;2022-08-20T01:40:19;9.45;;;4.50;;
29358;SDS011;16347;53.232;6.556;2022-08-20T01:43:01;8.95;;;4.05;;
29358;SDS011;16347;53.232;6.556;2022-08-20T01:45:35;13.50;;;4.68;;
29358;SDS011;16347;53.232;6.556;2022-08-20T01:48:05;13.77;;;4.85;;
29358;SDS011;16347;53.232;6.556;2022-08-20T01:50:35;9.32;;;3.88;;
29358;SDS011;16347;53.232;6.556;2022-08-20T01:53:10;12.25;;;4.55;;
29358;SDS011;16347;53.232;6.556;2022-08-20T01:55:44;13.80;;;4.18;;
29358;SDS011;16347;53.232;6.556;2022-08-20T01:58:14;9.98;;;4.50;;
29358;SDS011;16347;53.232;6.556;2022-08-20T02:00:42;16.67;;;4.13;;
29358;SDS011;16347;53.232;6.556;2022-08-20T02:03:10;14.85;;;4.15;;
29358;SDS011;16347;53.232;6.556;2022-08-20T02:05:38;12.40;;;4.57;;
29358;SDS011;16347;53.232;6.556;2022-08-20T02:08:06;14.43;;;4.78;;
29358;SDS011;16347;53.232;6.556;2022-08-20T02:10:34;12.00;;;4.75;;
29358;SDS011;16347;53.232;6.556;2022-08-20T02:13:02;11.38;;;4.68;;
29358;SDS011;16347;53.232;6.556;2022-08-20T02:15:35;14.80;;;4.72;;
29358;SDS011;16347;53.232;6.556;2022-08-20T02:18:10;15.45;;;4.57;;
29358;SDS011;16347;53.232;6.556;2022-08-20T02:20:41;15.35;;;5.05;;
29358;SDS011;16347;53.232;6.556;2022-08-20T02:23:09;17.45;;;4.68;;
29358;SDS011;16347;53.232;6.556;2022-08-20T02:25:38;11.05;;;4.82;;
29358;SDS011;16347;53.232;6.556;2022-08-20T02:28:10;13.40;;;4.20;;
29358;SDS011;16347;53.232;6.556;2022-08-20T02:30:42;8.75;;;4.32;;
29358;SDS011;16347;53.232;6.556;2022-08-20T02:33:13;13.43;;;4.30;;
29358;SDS011;16347;53.232;6.556;2022-08-20T02:35:43;10.45;;;4.43;;
29358;SDS011;16347;53.232;6.556;2022-08-20T02:38:13;10.57;;;4.43;;
29358;SDS011;16347;53.232;6.556;2022-08-20T02:40:42;8.63;;;3.75;;
29358;SDS011;16347;53.232;6.556;2022-08-20T02:43:11;12.43;;;4.25;;
29358;SDS011;16347;53.232;6.556;2022-08-20T02:45:41;12.23;;;4.38;;
29358;SDS011;16347;53.232;6.556;2022-08-20T02:48:11;11.40;;;3.97;;
29358;SDS011;16347;53.232;6.556;2022-08-20T02:50:47;17.88;;;4.53;;
29358;SDS011;16347;53.232;6.556;2022-08-20T02:53:17;13.25;;;3.30;;
29358;SDS011;16347;53.232;6.556;2022-08-20T02:55:45;10.15;;;3.92;;
29358;SDS011;16347;53.232;6.556;2022-08-20T02:58:13;11.82;;;3.50;;
29358;SDS011;16347;53.232;6.556;2022-08-20T03:00:43;16.23;;;4.03;;
29358;SDS011;16347;53.232;6.556;2022-08-20T03:03:13;13.75;;;3.70;;
29358;SDS011;16347;53.232;6.556;2022-08-20T03:08:13;9.93;;;2.67;;
29358;SDS011;16347;53.232;6.556;2022-08-20T03:10:44;16.70;;;4.35;;
29358;SDS011;16347;53.232;6.556;2022-08-20T03:13:13;13.23;;;2.67;;
29358;SDS011;16347;53.232;6.556;2022-08-20T03:15:44;14.10;;;2.90;;
29358;SDS011;16347;53.232;6.556;2022-08-20T03:18:14;11.07;;;3.10;;
29358;SDS011;16347;53.232;6.556;2022-08-20T03:20:43;10.05;;;3.00;;
29358;SDS011;16347;53.232;6.556;2022-08-20T03:23:18;14.52;;;3.47;;
29358;SDS011;16347;53.232;6.556;2022-08-20T03:25:47;13.82;;;2.80;;
29358;SDS011;16347;53.232;6.556;2022-08-20T03:28:16;8.98;;;2.72;;
29358;SDS011;16347;53.232;6.556;2022-08-20T03:30:46;9.18;;;2.70;;
29358;SDS011;16347;53.232;6.556;2022-08-20T03:33:15;17.42;;;3.20;;
29358;SDS011;16347;53.232;6.556;2022-08-20T03:35:45;16.08;;;2.67;;
29358;SDS011;16347;53.232;6.556;2022-08-20T03:38:15;11.27;;;2.63;;
29358;SDS011;16347;53.232;6.556;2022-08-20T03:40:58;15.35;;;3.20;;
29358;SDS011;16347;53.232;6.556;2022-08-20T03:43:26;6.22;;;2.42;;
29358;SDS011;16347;53.232;6.556;2022-08-20T03:45:56;12.45;;;2.50;;
29358;SDS011;16347;53.232;6.556;2022-08-20T03:48:24;9.80;;;2.60;;
29358;SDS011;16347;53.232;6.556;2022-08-20T03:50:52;16.30;;;2.88;;
29358;SDS011;16347;53.232;6.556;2022-08-20T03:53:21;13.20;;;2.97;;
29358;SDS011;16347;53.232;6.556;2022-08-20T03:55:49;8.75;;;2.20;;
29358;SDS011;16347;53.232;6.556;2022-08-20T03:58:26;14.63;;;2.88;;
29358;SDS011;16347;53.232;6.556;2022-08-20T04:01:03;7.55;;;2.40;;
29358;SDS011;16347;53.232;6.556;2022-08-20T04:03:33;10.05;;;2.10;;
29358;SDS011;16347;53.232;6.556;2022-08-20T04:06:01;15.50;;;3.20;;
29358;SDS011;16347;53.232;6.556;2022-08-20T04:08:30;11.10;;;2.42;;
29358;SDS011;16347;53.232;6.556;2022-08-20T04:10:58;13.38;;;2.63;;
29358;SDS011;16347;53.232;6.556;2022-08-20T04:13:27;11.82;;;1.95;;
29358;SDS011;16347;53.232;6.556;2022-08-20T04:15:56;15.55;;;2.15;;
29358;SDS011;16347;53.232;6.556;2022-08-20T04:18:30;14.37;;;2.90;;
29358;SDS011;16347;53.232;6.556;2022-08-20T04:20:59;10.18;;;2.67;;
29358;SDS011;16347;53.232;6.556;2022-08-20T04:23:28;17.50;;;2.88;;
29358;SDS011;16347;53.232;6.556;2022-08-20T04:25:57;8.68;;;2.50;;
29358;SDS011;16347;53.232;6.556;2022-08-20T04:28:26;16.73;;;2.50;;
29358;SDS011;16347;53.232;6.556;2022-08-20T04:30:57;13.73;;;2.63;;
29358;SDS011;16347;53.232;6.556;2022-08-20T04:33:29;12.48;;;2.35;;
29358;SDS011;16347;53.232;6.556;2022-08-20T04:36:01;8.65;;;2.40;;
29358;SDS011;16347;53.232;6.556;2022-08-20T04:38:33;7.18;;;2.03;;
29358;SDS011;16347;53.232;6.556;2022-08-20T04:43:50;11.55;;;2.60;;
29358;SDS011;16347;53.232;6.556;2022-08-20T04:46:20;12.93;;;2.60;;
29358;SDS011;16347;53.232;6.556;2022-08-20T04:48:54;15.05;;;2.50;;
29358;SDS011;16347;53.232;6.556;2022-08-20T04:51:24;7.35;;;1.90;;
29358;SDS011;16347;53.232;6.556;2022-08-20T04:53:57;15.82;;;2.53;;
29358;SDS011;16347;53.232;6.556;2022-08-20T04:56:29;11.55;;;2.22;;
29358;SDS011;16347;53.232;6.556;2022-08-20T04:59:05;7.05;;;1.60;;
29358;SDS011;16347;53.232;6.556;2022-08-20T05:01:36;10.25;;;2.13;;
29358;SDS011;16347;53.232;6.556;2022-08-20T05:04:06;11.10;;;2.85;;
29358;SDS011;16347;53.232;6.556;2022-08-20T05:06:37;12.02;;;2.10;;
29358;SDS011;16347;53.232;6.556;2022-08-20T05:09:09;7.45;;;1.73;;
29358;SDS011;16347;53.232;6.556;2022-08-20T05:11:43;7.53;;;1.80;;
29358;SDS011;16347;53.232;6.556;2022-08-20T05:14:15;6.63;;;1.77;;
29358;SDS011;16347;53.232;6.556;2022-08-20T05:16:47;6.15;;;1.65;;
29358;SDS011;16347;53.232;6.556;2022-08-20T05:19:22;8.25;;;2.00;;
29358;SDS011;16347;53.232;6.556;2022-08-20T05:21:56;6.22;;;1.70;;
29358;SDS011;16347;53.232;6.556;2022-08-20T05:24:27;6.63;;;1.70;;
29358;SDS011;16347;53.232;6.556;2022-08-20T05:26:59;13.02;;;2.30;;
29358;SDS011;16347;53.232;6.556;2022-08-20T05:29:30;5.65;;;1.58;;
29358;SDS011;16347;53.232;6.556;2022-08-20T05:32:02;7.10;;;1.80;;
29358;SDS011;16347;53.232;6.556;2022-08-20T05:34:35;7.82;;;1.85;;
29358;SDS011;16347;53.232;6.556;2022-08-20T05:37:06;6.50;;;1.60;;
29358;SDS011;16347;53.232;6.556;2022-08-20T05:39:38;5.80;;;1.50;;
29358;SDS011;16347;53.232;6.556;2022-08-20T05:42:08;4.43;;;1.63;;
29358;SDS011;16347;53.232;6.556;2022-08-20T05:44:37;6.07;;;2.15;;
29358;SDS011;16347;53.232;6.556;2022-08-20T05:47:06;6.60;;;1.60;;
29358;SDS011;16347;53.232;6.556;2022-08-20T05:49:39;7.15;;;1.55;;
29358;SDS011;16347;53.232;6.556;2022-08-20T05:52:08;7.53;;;1.80;;
29358;SDS011;16347;53.232;6.556;2022-08-20T05:54:40;11.52;;;1.95;;
29358;SDS011;16347;53.232;6.556;2022-08-20T05:57:09;9.40;;;1.73;;
29358;SDS011;16347;53.232;6.556;2022-08-20T05:59:40;6.07;;;1.65;;
29358;SDS011;16347;53.232;6.556;2022-08-20T06:02:10;10.07;;;2.20;;
29358;SDS011;16347;53.232;6.556;2022-08-20T06:04:55;12.27;;;1.90;;
29358;SDS011;16347;53.232;6.556;2022-08-20T06:07:26;10.73;;;2.00;;
29358;SDS011;16347;53.232;6.556;2022-08-20T06:09:56;8.82;;;1.85;;
29358;SDS011;16347;53.232;6.556;2022-08-20T06:12:29;7.13;;;1.50;;
29358;SDS011;16347;53.232;6.556;2022-08-20T06:14:58;4.07;;;1.42;;
29358;SDS011;16347;53.232;6.556;2022-08-20T06:17:27;8.32;;;1.83;;
29358;SDS011;16347;53.232;6.556;2022-08-20T06:20:07;7.53;;;1.65;;
29358;SDS011;16347;53.232;6.556;2022-08-20T06:22:36;17.52;;;2.78;;
29358;SDS011;16347;53.232;6.556;2022-08-20T06:25:05;5.68;;;1.45;;
29358;SDS011;16347;53.232;6.556;2022-08-20T06:27:36;13.38;;;1.90;;
29358;SDS011;16347;53.232;6.556;2022-08-20T06:30:06;9.02;;;1.85;;
29358;SDS011;16347;53.232;6.556;2022-08-20T06:32:35;7.03;;;1.60;;
29358;SDS011;16347;53.232;6.556;2022-08-20T06:35:05;3.80;;;1.17;;
29358;SDS011;16347;53.232;6.556;2022-08-20T06:37:37;13.27;;;2.30;;
29358;SDS011;16347;53.232;6.556;2022-08-20T06:40:06;5.15;;;1.98;;
29358;SDS011;16347;53.232;6.556;2022-08-20T06:42:37;6.07;;;1.38;;
29358;SDS011;16347;53.232;6.556;2022-08-20T06:45:14;8.35;;;1.23;;
29358;SDS011;16347;53.232;6.556;2022-08-20T06:47:44;6.03;;;1.60;;
29358;SDS011;16347;53.232;6.556;2022-08-20T06:50:16;5.32;;;1.48;;
29358;SDS011;16347;53.232;6.556;2022-08-20T06:52:45;7.50;;;1.30;;
29358;SDS011;16347;53.232;6.556;2022-08-20T06:55:28;8.98;;;1.45;;
29358;SDS011;16347;53.232;6.556;2022-08-20T06:57:58;9.48;;;2.03;;
29358;SDS011;16347;53.232;6.556;2022-08-20T07:00:28;6.20;;;1.63;;
29358;SDS011;16347;53.232;6.556;2022-08-20T07:02:57;9.05;;;1.35;;
29358;SDS011;16347;53.232;6.556;2022-08-20T07:05:28;5.88;;;1.40;;
29358;SDS011;16347;53.232;6.556;2022-08-20T07:07:59;9.80;;;1.73;;
29358;SDS011;16347;53.232;6.556;2022-08-20T07:10:27;9.70;;;1.70;;
29358;SDS011;16347;53.232;6.556;2022-08-20T07:12:56;10.88;;;2.10;;
29358;SDS011;16347;53.232;6.556;2022-08-20T07:15:27;6.85;;;2.15;;
29358;SDS011;16347;53.232;6.556;2022-08-20T07:18:00;8.07;;;2.35;;
29358;SDS011;16347;53.232;6.556;2022-08-20T07:20:34;11.95;;;3.40;;
29358;SDS011;16347;53.232;6.556;2022-08-20T07:23:06;13.02;;;1.92;;
29358;SDS011;16347;53.232;6.556;2022-08-20T07:25:37;10.10;;;2.05;;
29358;SDS011;16347;53.232;6.556;2022-08-20T07:28:10;8.80;;;1.73;;
29358;SDS011;16347;53.232;6.556;2022-08-20T07:30:40;7.30;;;1.67;;
29358;SDS011;16347;53.232;6.556;2022-08-20T07:33:38;10.23;;;1.88;;
29358;SDS011;16347;53.232;6.556;2022-08-20T07:36:08;7.68;;;1.52;;
29358;SDS011;16347;53.232;6.556;2022-08-20T07:38:37;6.05;;;1.60;;
29358;SDS011;16347;53.232;6.556;2022-08-20T07:41:06;12.68;;;1.75;;
29358;SDS011;16347;53.232;6.556;2022-08-20T07:43:40;8.10;;;1.50;;
29358;SDS011;16347;53.232;6.556;2022-08-20T07:46:11;8.73;;;1.90;;
29358;SDS011;16347;53.232;6.556;2022-08-20T07:48:41;10.75;;;1.73;;
29358;SDS011;16347;53.232;6.556;2022-08-20T07:51:14;8.95;;;1.95;;
29358;SDS011;16347;53.232;6.556;2022-08-20T07:53:44;7.43;;;2.13;;
29358;SDS011;16347;53.232;6.556;2022-08-20T07:56:15;4.38;;;1.40;;
29358;SDS011;16347;53.232;6.556;2022-08-20T07:58:48;6.50;;;1.48;;
29358;SDS011;16347;53.232;6.556;2022-08-20T08:01:18;6.55;;;1.50;;
29358;SDS011;16347;53.232;6.556;2022-08-20T08:03:48;5.68;;;1.50;;
29358;SDS011;16347;53.232;6.556;2022-08-20T08:06:19;6.13;;;1.40;;
29358;SDS011;16347;53.232;6.556;2022-08-20T08:08:56;6.50;;;1.40;;
29358;SDS011;16347;53.232;6.556;2022-08-20T08:11:28;7.53;;;1.40;;
29358;SDS011;16347;53.232;6.556;2022-08-20T08:14:04;10.13;;;1.60;;
29358;SDS011;16347;53.232;6.556;2022-08-20T08:16:35;10.73;;;1.88;;
29358;SDS011;16347;53.232;6.556;2022-08-20T08:19:05;7.15;;;1.55;;
29358;SDS011;16347;53.232;6.556;2022-08-20T08:21:39;6.38;;;1.42;;
29358;SDS011;16347;53.232;6.556;2022-08-20T08:24:07;8.35;;;1.60;;
29358;SDS011;16347;53.232;6.556;2022-08-20T08:26:40;9.10;;;1.23;;
29358;SDS011;16347;53.232;6.556;2022-08-20T08:29:09;8.75;;;1.60;;
29358;SDS011;16347;53.232;6.556;2022-08-20T08:31:39;11.68;;;1.88;;
29358;SDS011;16347;53.232;6.556;2022-08-20T08:34:08;7.13;;;1.45;;
29358;SDS011;16347;53.232;6.556;2022-08-20T08:36:40;9.48;;;1.60;;
29358;SDS011;16347;53.232;6.556;2022-08-20T08:39:11;8.13;;;1.35;;
29358;SDS011;16347;53.232;6.556;2022-08-20T08:41:41;4.45;;;1.08;;
29358;SDS011;16347;53.232;6.556;2022-08-20T08:44:17;9.43;;;1.70;;
29358;SDS011;16347;53.232;6.556;2022-08-20T08:49:21;9.50;;;1.63;;
29358;SDS011;16347;53.232;6.556;2022-08-20T08:54:45;8.27;;;1.65;;
29358;SDS011;16347;53.232;6.556;2022-08-20T08:59:49;7.80;;;1.63;;
29358;SDS011;16347;53.232;6.556;2022-08-20T09:05:02;8.60;;;1.50;;
29358;SDS011;16347;53.232;6.556;2022-08-20T09:07:43;3.28;;;1.02;;
29358;SDS011;16347;53.232;6.556;2022-08-20T09:10:20;6.85;;;1.48;;
29358;SDS011;16347;53.232;6.556;2022-08-20T09:12:51;8.38;;;1.70;;
29358;SDS011;16347;53.232;6.556;2022-08-20T09:15:22;7.60;;;1.50;;
29358;SDS011;16347;53.232;6.556;2022-08-20T09:17:53;9.98;;;1.17;;
29358;SDS011;16347;53.232;6.556;2022-08-20T09:20:26;6.00;;;1.60;;
29358;SDS011;16347;53.232;6.556;2022-08-20T09:22:57;7.10;;;1.30;;
29358;SDS011;16347;53.232;6.556;2022-08-20T09:25:27;6.13;;;1.42;;
29358;SDS011;16347;53.232;6.556;2022-08-20T09:27:56;6.88;;;1.48;;
29358;SDS011;16347;53.232;6.556;2022-08-20T09:30:26;6.32;;;1.10;;
29358;SDS011;16347;53.232;6.556;2022-08-20T09:32:57;4.85;;;1.23;;
29358;SDS011;16347;53.232;6.556;2022-08-20T09:35:26;8.40;;;1.70;;
29358;SDS011;16347;53.232;6.556;2022-08-20T09:37:55;6.70;;;1.90;;
29358;SDS011;16347;53.232;6.556;2022-08-20T09:40:26;6.05;;;1.55;;
29358;SDS011;16347;53.232;6.556;2022-08-20T09:42:55;11.00;;;1.80;;
29358;SDS011;16347;53.232;6.556;2022-08-20T09:45:25;9.32;;;1.65;;
29358;SDS011;16347;53.232;6.556;2022-08-20T09:47:54;10.40;;;1.45;;
29358;SDS011;16347;53.232;6.556;2022-08-20T09:50:25;8.68;;;1.65;;
29358;SDS011;16347;53.232;6.556;2022-08-20T09:52:57;6.07;;;1.50;;
29358;SDS011;16347;53.232;6.556;2022-08-20T09:55:31;6.70;;;1.60;;
29358;SDS011;16347;53.232;6.556;2022-08-20T09:58:02;8.27;;;1.58;;
29358;SDS011;16347;53.232;6.556;2022-08-20T10:00:38;9.35;;;1.58;;
29358;SDS011;16347;53.232;6.556;2022-08-20T10:03:09;9.98;;;1.35;;
29358;SDS011;16347;53.232;6.556;2022-08-20T10:05:38;12.32;;;1.67;;
29358;SDS011;16347;53.232;6.556;2022-08-20T10:08:08;7.95;;;1.90;;
29358;SDS011;16347;53.232;6.556;2022-08-20T10:10:41;7.82;;;2.05;;
29358;SDS011;16347;53.232;6.556;2022-08-20T10:13:10;12.35;;;2.15;;
29358;SDS011;16347;53.232;6.556;2022-08-20T10:15:42;14.45;;;1.90;;
29358;SDS011;16347;53.232;6.556;2022-08-20T10:18:11;7.45;;;2.20;;
29358;SDS011;16347;53.232;6.556;2022-08-20T10:20:41;9.75;;;1.80;;
29358;SDS011;16347;53.232;6.556;2022-08-20T10:23:09;8.18;;;1.65;;
29358;SDS011;16347;53.232;6.556;2022-08-20T10:25:41;8.70;;;1.50;;
29358;SDS011;16347;53.232;6.556;2022-08-20T10:28:10;6.95;;;1.73;;
29358;SDS011;16347;53.232;6.556;2022-08-20T10:30:43;8.13;;;1.40;;
29358;SDS011;16347;53.232;6.556;2022-08-20T10:33:15;7.70;;;1.50;;
29358;SDS011;16347;53.232;6.556;2022-08-20T10:35:46;8.18;;;1.45;;
29358;SDS011;16347;53.232;6.556;2022-08-20T10:38:17;8.00;;;1.70;;
29358;SDS011;16347;53.232;6.556;2022-08-20T10:40:50;7.90;;;1.95;;
29358;SDS011;16347;53.232;6.556;2022-08-20T10:43:19;7.03;;;2.22;;
29358;SDS011;16347;53.232;6.556;2022-08-20T10:45:49;9.98;;;1.92;;
29358;SDS011;16347;53.232;6.556;2022-08-20T10:48:19;7.60;;;1.77;;
29358;SDS011;16347;53.232;6.556;2022-08-20T10:50:49;8.25;;;2.30;;
29358;SDS011;16347;53.232;6.556;2022-08-20T10:53:20;6.20;;;1.60;;
29358;SDS011;16347;53.232;6.556;2022-08-20T10:55:50;9.05;;;1.90;;
29358;SDS011;16347;53.232;6.556;2022-08-20T10:58:20;5.68;;;1.80;;
29358;SDS011;16347;53.232;6.556;2022-08-20T11:00:51;7.50;;;2.13;;
29358;SDS011;16347;53.232;6.556;2022-08-20T11:03:22;7.53;;;2.08;;
29358;SDS011;16347;53.232;6.556;2022-08-20T11:05:53;12.07;;;1.85;;
29358;SDS011;16347;53.232;6.556;2022-08-20T11:08:22;12.40;;;2.15;;
29358;SDS011;16347;53.232;6.556;2022-08-20T11:11:01;10.38;;;1.90;;
29358;SDS011;16347;53.232;6.556;2022-08-20T11:13:31;8.32;;;1.90;;
29358;SDS011;16347;53.232;6.556;2022-08-20T11:16:01;9.50;;;1.83;;
29358;SDS011;16347;53.232;6.556;2022-08-20T11:18:30;8.27;;;2.25;;
29358;SDS011;16347;53.232;6.556;2022-08-20T11:20:59;8.75;;;2.00;;
29358;SDS011;16347;53.232;6.556;2022-08-20T11:23:27;12.25;;;1.75;;
29358;SDS011;16347;53.232;6.556;2022-08-20T11:25:56;10.82;;;1.90;;
29358;SDS011;16347;53.232;6.556;2022-08-20T11:28:26;6.78;;;1.60;;
29358;SDS011;16347;53.232;6.556;2022-08-20T11:30:58;6.65;;;1.90;;
29358;SDS011;16347;53.232;6.556;2022-08-20T11:33:28;10.18;;;2.20;;
29358;SDS011;16347;53.232;6.556;2022-08-20T11:35:58;9.70;;;2.05;;
29358;SDS011;16347;53.232;6.556;2022-08-20T11:38:26;4.72;;;1.40;;
29358;SDS011;16347;53.232;6.556;2022-08-20T11:40:57;9.30;;;1.90;;
29358;SDS011;16347;53.232;6.556;2022-08-20T11:43:27;14.68;;;2.30;;
29358;SDS011;16347;53.232;6.556;2022-08-20T11:45:57;9.57;;;1.90;;
29358;SDS011;16347;53.232;6.556;2022-08-20T11:48:26;13.00;;;2.15;;
29358;SDS011;16347;53.232;6.556;2022-08-20T11:50:56;8.68;;;1.52;;
29358;SDS011;16347;53.232;6.556;2022-08-20T11:53:24;11.98;;;1.63;;
29358;SDS011;16347;53.232;6.556;2022-08-20T11:55:54;9.13;;;2.00;;
29358;SDS011;16347;53.232;6.556;2022-08-20T11:58:23;3.72;;;1.30;;
29358;SDS011;16347;53.232;6.556;2022-08-20T12:00:54;10.05;;;2.20;;
29358;SDS011;16347;53.232;6.556;2022-08-20T12:03:22;7.63;;;1.70;;
29358;SDS011;16347;53.232;6.556;2022-08-20T12:05:51;6.25;;;1.65;;
29358;SDS011;16347;53.232;6.556;2022-08-20T12:08:22;9.73;;;1.70;;
29358;SDS011;16347;53.232;6.556;2022-08-20T12:10:55;7.93;;;1.80;;
29358;SDS011;16347;53.232;6.556;2022-08-20T12:13:27;11.20;;;1.52;;
29358;SDS011;16347;53.232;6.556;2022-08-20T12:16:16;5.25;;;1.60;;
29358;SDS011;16347;53.232;6.556;2022-08-20T12:18:46;8.85;;;2.17;;
29358;SDS011;16347;53.232;6.556;2022-08-20T12:21:14;5.63;;;1.58;;
29358;SDS011;16347;53.232;6.556;2022-08-20T12:23:43;8.85;;;1.83;;
29358;SDS011;16347;53.232;6.556;2022-08-20T12:26:12;11.55;;;2.00;;
29358;SDS011;16347;53.232;6.556;2022-08-20T12:28:42;6.95;;;1.63;;
29358;SDS011;16347;53.232;6.556;2022-08-20T12:31:10;7.72;;;1.73;;
29358;SDS011;16347;53.232;6.556;2022-08-20T12:33:40;10.65;;;1.67;;
29358;SDS011;16347;53.232;6.556;2022-08-20T12:36:08;10.13;;;1.65;;
29358;SDS011;16347;53.232;6.556;2022-08-20T12:38:36;4.65;;;1.73;;
29358;SDS011;16347;53.232;6.556;2022-08-20T12:41:05;8.90;;;1.98;;
29358;SDS011;16347;53.232;6.556;2022-08-20T12:43:34;12.82;;;2.10;;
29358;SDS011;16347;53.232;6.556;2022-08-20T12:46:05;4.90;;;1.50;;
29358;SDS011;16347;53.232;6.556;2022-08-20T12:48:36;6.60;;;1.80;;
29358;SDS011;16347;53.232;6.556;2022-08-20T12:51:08;7.75;;;1.88;;
29358;SDS011;16347;53.232;6.556;2022-08-20T12:53:37;6.93;;;1.60;;
29358;SDS011;16347;53.232;6.556;2022-08-20T12:56:07;6.97;;;1.73;;
29358;SDS011;16347;53.232;6.556;2022-08-20T12:58:36;5.47;;;1.67;;
29358;SDS011;16347;53.232;6.556;2022-08-20T13:01:06;10.95;;;1.88;;
29358;SDS011;16347;53.232;6.556;2022-08-20T13:03:37;7.28;;;1.80;;
29358;SDS011;16347;53.232;6.556;2022-08-20T13:06:12;7.75;;;1.70;;
29358;SDS011;16347;53.232;6.556;2022-08-20T13:08:40;9.80;;;1.80;;
29358;SDS011;16347;53.232;6.556;2022-08-20T13:11:08;9.85;;;2.53;;
29358;SDS011;16347;53.232;6.556;2022-08-20T13:13:36;9.00;;;2.00;;
29358;SDS011;16347;53.232;6.556;2022-08-20T13:16:05;12.95;;;2.15;;
29358;SDS011;16347;53.232;6.556;2022-08-20T13:18:36;13.05;;;2.60;;
29358;SDS011;16347;53.232;6.556;2022-08-20T13:21:06;10.05;;;1.90;;
29358;SDS011;16347;53.232;6.556;2022-08-20T13:23:35;9.35;;;1.92;;
29358;SDS011;16347;53.232;6.556;2022-08-20T13:26:04;7.43;;;1.85;;
29358;SDS011;16347;53.232;6.556;2022-08-20T13:28:34;6.43;;;1.77;;
29358;SDS011;16347;53.232;6.556;2022-08-20T13:31:03;12.88;;;2.80;;
29358;SDS011;16347;53.232;6.556;2022-08-20T13:33:31;10.43;;;1.77;;
29358;SDS011;16347;53.232;6.556;2022-08-20T13:36:01;6.68;;;1.92;;
29358;SDS011;16347;53.232;6.556;2022-08-20T13:38:29;10.20;;;1.92;;
29358;SDS011;16347;53.232;6.556;2022-08-20T13:41:01;9.38;;;2.17;;
29358;SDS011;16347;53.232;6.556;2022-08-20T13:43:30;9.20;;;2.03;;
29358;SDS011;16347;53.232;6.556;2022-08-20T13:46:00;8.18;;;2.05;;
29358;SDS011;16347;53.232;6.556;2022-08-20T13:48:28;11.20;;;2.20;;
29358;SDS011;16347;53.232;6.556;2022-08-20T13:50:57;8.85;;;1.92;;
29358;SDS011;16347;53.232;6.556;2022-08-20T13:53:25;15.70;;;2.00;;
29358;SDS011;16347;53.232;6.556;2022-08-20T13:55:53;8.10;;;1.95;;
29358;SDS011;16347;53.232;6.556;2022-08-20T13:58:23;7.15;;;1.88;;
29358;SDS011;16347;53.232;6.556;2022-08-20T14:00:51;9.93;;;1.80;;
29358;SDS011;16347;53.232;6.556;2022-08-20T14:03:21;7.15;;;1.95;;
29358;SDS011;16347;53.232;6.556;2022-08-20T14:05:51;11.05;;;2.00;;
29358;SDS011;16347;53.232;6.556;2022-08-20T14:08:21;12.70;;;2.20;;
29358;SDS011;16347;53.232;6.556;2022-08-20T14:10:51;11.15;;;2.03;;
29358;SDS011;16347;53.232;6.556;2022-08-20T14:13:23;9.73;;;2.00;;
29358;SDS011;16347;53.232;6.556;2022-08-20T14:15:54;5.28;;;1.65;;
29358;SDS011;16347;53.232;6.556;2022-08-20T14:18:22;13.43;;;2.30;;
29358;SDS011;16347;53.232;6.556;2022-08-20T14:20:51;9.10;;;2.22;;
29358;SDS011;16347;53.232;6.556;2022-08-20T14:23:20;5.70;;;1.77;;
29358;SDS011;16347;53.232;6.556;2022-08-20T14:25:50;7.30;;;1.98;;
29358;SDS011;16347;53.232;6.556;2022-08-20T14:28:20;10.55;;;2.10;;
29358;SDS011;16347;53.232;6.556;2022-08-20T14:30:54;10.00;;;1.95;;
29358;SDS011;16347;53.232;6.556;2022-08-20T14:33:22;7.80;;;2.05;;
29358;SDS011;16347;53.232;6.556;2022-08-20T14:35:51;14.98;;;2.22;;
29358;SDS011;16347;53.232;6.556;2022-08-20T14:38:20;6.40;;;2.00;;
29358;SDS011;16347;53.232;6.556;2022-08-20T14:40:51;7.90;;;1.83;;
29358;SDS011;16347;53.232;6.556;2022-08-20T14:43:19;9.50;;;1.83;;
29358;SDS011;16347;53.232;6.556;2022-08-20T14:45:50;6.40;;;1.80;;
29358;SDS011;16347;53.232;6.556;2022-08-20T14:48:19;7.60;;;1.80;;
29358;SDS011;16347;53.232;6.556;2022-08-20T14:50:51;13.32;;;2.50;;
29358;SDS011;16347;53.232;6.556;2022-08-20T14:53:21;10.32;;;2.00;;
29358;SDS011;16347;53.232;6.556;2022-08-20T14:55:50;8.02;;;2.10;;
29358;SDS011;16347;53.232;6.556;2022-08-20T14:58:19;6.75;;;1.92;;
29358;SDS011;16347;53.232;6.556;2022-08-20T15:00:53;9.13;;;1.95;;
29358;SDS011;16347;53.232;6.556;2022-08-20T15:03:22;6.95;;;1.73;;
29358;SDS011;16347;53.232;6.556;2022-08-20T15:05:57;7.22;;;1.90;;
29358;SDS011;16347;53.232;6.556;2022-08-20T15:08:27;20.10;;;2.25;;
29358;SDS011;16347;53.232;6.556;2022-08-20T15:10:56;6.38;;;1.40;;
29358;SDS011;16347;53.232;6.556;2022-08-20T15:13:24;6.38;;;1.52;;
29358;SDS011;16347;53.232;6.556;2022-08-20T15:15:54;13.30;;;2.35;;
29358;SDS011;16347;53.232;6.556;2022-08-20T15:18:22;8.98;;;2.17;;
29358;SDS011;16347;53.232;6.556;2022-08-20T15:20:50;9.60;;;1.83;;